createdAt,value
2022-12-18T00:00:23.804Z,25.70
2022-12-18T00:01:23.909Z,21.90
2022-12-18T00:02:23.845Z,26.10
2022-12-18T00:03:23.916Z,21.90
2022-12-18T00:04:23.912Z,22.70
2022-12-18T00:05:23.766Z,26.20
2022-12-18T00:06:23.989Z,22.20
2022-12-18T00:07:24.085Z,25.50
2022-12-18T00:08:24.213Z,24.20
2022-12-18T00:09:24.232Z,21.70
2022-12-18T00:10:24.223Z,26.30
2022-12-18T00:11:23.712Z,22.70
2022-12-18T00:12:24.324Z,24.90
2022-12-18T00:13:23.699Z,23.50
2022-12-18T00:14:23.720Z,22.40
2022-12-18T00:15:23.717Z,25.10
2022-12-18T00:16:23.809Z,20.40
2022-12-18T00:17:23.855Z,25.60
2022-12-18T00:18:23.857Z,21.50
2022-12-18T00:19:23.866Z,25.20
2022-12-18T00:20:23.676Z,22.00
2022-12-18T00:21:23.998Z,21.70
2022-12-18T00:22:23.886Z,25.90
2022-12-18T00:23:24.096Z,21.40
2022-12-18T00:24:24.107Z,24.90
2022-12-18T00:25:24.194Z,20.90
2022-12-18T00:26:24.124Z,21.30
2022-12-18T00:27:24.333Z,22.70
2022-12-18T00:28:23.723Z,19.00
2022-12-18T00:29:24.244Z,23.90
2022-12-18T00:30:23.941Z,19.30
2022-12-18T00:31:24.395Z,22.50
2022-12-18T00:32:23.820Z,21.50
2022-12-18T00:33:23.669Z,19.20
2022-12-18T00:34:23.797Z,23.10
2022-12-18T00:35:24.067Z,17.90
2022-12-18T00:36:24.403Z,21.80
2022-12-18T00:37:23.579Z,19.10
2022-12-18T00:38:24.199Z,20.20
2022-12-18T00:39:23.598Z,20.40
2022-12-18T00:40:24.417Z,17.90
2022-12-18T00:41:23.807Z,23.30
2022-12-18T00:42:23.727Z,18.90
2022-12-18T00:43:24.029Z,20.10
2022-12-18T00:44:23.486Z,22.80
2022-12-18T00:45:23.888Z,19.70
2022-12-18T00:46:23.635Z,23.20
2022-12-18T00:47:24.355Z,19.10
2022-12-18T00:48:24.335Z,23.90
2022-12-18T00:49:23.654Z,22.50
2022-12-18T00:50:23.533Z,20.40
2022-12-18T00:51:23.515Z,24.70
2022-12-18T00:52:23.492Z,20.10
2022-12-18T00:53:23.560Z,24.40
2022-12-18T00:54:23.571Z,20.40
2022-12-18T00:55:23.611Z,20.10
2022-12-18T00:56:23.711Z,23.40
2022-12-18T00:57:23.462Z,19.80
2022-12-18T00:58:23.419Z,22.00
2022-12-18T00:59:23.438Z,17.40
2022-12-18T01:00:23.543Z,19.50
2022-12-18T01:01:23.664Z,19.30
2022-12-18T01:02:23.543Z,15.60
2022-12-18T01:03:23.559Z,20.40
2022-12-18T01:04:23.430Z,15.10
2022-12-18T01:05:23.657Z,18.90
2022-12-18T01:06:23.656Z,15.30
2022-12-18T01:07:23.377Z,17.60
2022-12-18T01:08:23.449Z,16.90
2022-12-18T01:09:23.396Z,16.20
2022-12-18T01:10:23.676Z,18.80
2022-12-18T01:11:23.664Z,15.10
2022-12-18T01:12:23.882Z,18.70
2022-12-18T01:13:23.416Z,14.60
2022-12-18T01:14:24.353Z,18.20
2022-12-18T01:15:23.493Z,16.00
2022-12-18T01:16:23.707Z,14.50
2022-12-18T01:17:23.643Z,19.00
2022-12-18T01:18:23.862Z,14.50
2022-12-18T01:19:23.452Z,18.20
2022-12-18T01:20:23.721Z,15.10
2022-12-18T01:21:23.879Z,17.50
2022-12-18T01:22:23.480Z,15.00
2022-12-18T01:23:24.100Z,14.40
2022-12-18T01:24:23.371Z,16.40
2022-12-18T01:25:23.910Z,13.10
2022-12-18T01:26:23.360Z,16.70
2022-12-18T01:27:23.327Z,14.10
2022-12-18T01:28:23.316Z,16.00
2022-12-18T01:29:23.328Z,14.30
2022-12-18T01:30:23.335Z,12.80
2022-12-18T01:31:23.424Z,15.90
2022-12-18T01:32:23.396Z,12.80
2022-12-18T01:33:23.560Z,14.40
2022-12-18T01:34:23.233Z,13.70
2022-12-18T01:35:23.203Z,12.70
2022-12-18T01:36:23.572Z,15.80
2022-12-18T01:37:23.221Z,12.40
2022-12-18T01:38:23.583Z,13.50
2022-12-18T01:39:23.802Z,13.60
2022-12-18T01:40:23.812Z,12.80
2022-12-18T01:41:23.203Z,14.80
2022-12-18T01:42:23.872Z,12.10
2022-12-18T01:43:23.621Z,15.60
2022-12-18T01:44:23.633Z,12.70
2022-12-18T01:45:23.849Z,13.80
2022-12-18T01:46:23.640Z,11.20
2022-12-18T01:47:23.979Z,13.70
2022-12-18T01:48:24.068Z,13.60
2022-12-18T01:49:23.917Z,11.70
2022-12-18T01:50:23.257Z,14.00
2022-12-18T01:51:24.105Z,11.20
2022-12-18T01:52:24.007Z,13.80
2022-12-18T01:53:23.127Z,11.10
2022-12-18T01:54:23.107Z,13.50
2022-12-18T01:55:23.103Z,12.10
2022-12-18T01:56:23.084Z,11.70
2022-12-18T01:57:23.106Z,13.00
2022-12-18T01:58:23.095Z,11.20
2022-12-18T01:59:23.115Z,13.40
2022-12-18T02:00:23.124Z,11.60
2022-12-18T02:01:23.280Z,11.90
2022-12-18T02:02:23.242Z,13.60
2022-12-18T02:03:23.215Z,10.70
2022-12-18T02:04:23.184Z,13.10
2022-12-18T02:05:23.211Z,10.50
2022-12-18T02:06:23.023Z,13.40
2022-12-18T02:07:23.038Z,10.70
2022-12-18T02:08:23.042Z,11.00
2022-12-18T02:09:23.041Z,11.40
2022-12-18T02:10:23.009Z,10.50
2022-12-18T02:11:23.028Z,13.80
2022-12-18T02:12:23.065Z,11.50
2022-12-18T02:13:23.012Z,13.40
2022-12-18T02:14:23.058Z,11.00
2022-12-18T02:15:23.066Z,12.60
2022-12-18T02:16:23.205Z,11.90
2022-12-18T02:17:22.978Z,13.20
2022-12-18T02:18:23.045Z,12.50
2022-12-18T02:19:23.085Z,11.70
2022-12-18T02:20:22.946Z,15.30
2022-12-18T02:21:22.932Z,12.60
2022-12-18T02:22:23.105Z,15.70
2022-12-18T02:23:23.283Z,14.60
2022-12-18T02:24:22.942Z,15.00
2022-12-18T02:25:22.914Z,14.80
2022-12-18T02:26:22.952Z,12.90
2022-12-18T02:27:23.320Z,15.90
2022-12-18T02:28:23.322Z,12.80
2022-12-18T02:29:23.332Z,15.70
2022-12-18T02:30:23.033Z,12.60
2022-12-18T02:31:22.962Z,15.00
2022-12-18T02:32:23.356Z,14.40
2022-12-18T02:33:23.349Z,12.80
2022-12-18T02:34:22.871Z,16.80
2022-12-18T02:35:22.959Z,13.00
2022-12-18T02:36:22.969Z,15.00
2022-12-18T02:37:23.185Z,14.70
2022-12-18T02:38:23.395Z,13.30
2022-12-18T02:39:22.846Z,17.50
2022-12-18T02:40:23.407Z,14.30
2022-12-18T02:41:22.857Z,18.30
2022-12-18T02:42:23.415Z,13.60
2022-12-18T02:43:22.837Z,16.60
2022-12-18T02:44:22.834Z,16.80
2022-12-18T02:45:22.849Z,16.90
2022-12-18T02:46:23.033Z,19.20
2022-12-18T02:47:23.046Z,15.30
2022-12-18T02:48:22.804Z,17.90
2022-12-18T02:49:22.882Z,17.10
2022-12-18T02:50:22.863Z,15.90
2022-12-18T02:51:22.875Z,21.10
2022-12-18T02:52:22.887Z,17.10
2022-12-18T02:53:22.882Z,20.90
2022-12-18T02:54:22.910Z,16.90
2022-12-18T02:55:23.101Z,19.90
2022-12-18T02:56:23.113Z,18.80
2022-12-18T02:57:23.119Z,17.40
2022-12-18T02:58:22.913Z,20.50
2022-12-18T02:59:22.943Z,17.10
2022-12-18T03:00:23.139Z,16.50
2022-12-18T03:01:22.859Z,19.90
2022-12-18T03:02:23.095Z,16.60
2022-12-18T03:03:22.995Z,18.60
2022-12-18T03:04:23.378Z,18.50
2022-12-18T03:05:22.755Z,16.50
2022-12-18T03:06:23.178Z,20.60
2022-12-18T03:07:23.387Z,16.30
2022-12-18T03:08:22.986Z,19.50
2022-12-18T03:09:23.575Z,17.60
2022-12-18T03:10:23.646Z,16.60
2022-12-18T03:11:23.008Z,19.20
2022-12-18T03:12:23.012Z,17.00
2022-12-18T03:13:23.423Z,20.00
2022-12-18T03:14:23.561Z,16.50
2022-12-18T03:15:23.466Z,20.50
2022-12-18T03:16:22.688Z,17.70
2022-12-18T03:17:23.042Z,17.60
2022-12-18T03:18:23.691Z,19.40
2022-12-18T03:19:22.682Z,16.00
2022-12-18T03:20:22.708Z,19.00
2022-12-18T03:21:22.669Z,14.80
2022-12-18T03:22:22.695Z,17.90
2022-12-18T03:23:26.097Z,16.30
2022-12-18T03:24:22.909Z,17.60
2022-12-18T03:25:22.888Z,15.90
2022-12-18T03:26:22.903Z,15.60
2022-12-18T03:27:22.909Z,15.70
2022-12-18T03:28:22.915Z,13.30
2022-12-18T03:29:23.125Z,17.20
2022-12-18T03:30:23.137Z,14.50
2022-12-18T03:31:22.809Z,16.20
2022-12-18T03:32:22.951Z,13.90
2022-12-18T03:33:23.177Z,16.40
2022-12-18T03:34:23.383Z,14.10
2022-12-18T03:35:23.384Z,13.70
2022-12-18T03:36:22.561Z,15.80
2022-12-18T03:37:22.562Z,12.40
2022-12-18T03:38:22.583Z,15.90
2022-12-18T03:39:22.591Z,12.80
2022-12-18T03:40:22.600Z,14.90
2022-12-18T03:41:22.599Z,13.40
2022-12-18T03:42:22.609Z,14.80
2022-12-18T03:43:22.617Z,14.40
2022-12-18T03:44:22.619Z,12.90
2022-12-18T03:45:22.627Z,15.50
2022-12-18T03:46:22.578Z,13.40
2022-12-18T03:47:22.477Z,15.10
2022-12-18T03:48:22.497Z,13.70
2022-12-18T03:49:22.468Z,12.40
2022-12-18T03:50:22.705Z,15.20
2022-12-18T03:51:22.495Z,12.90
2022-12-18T03:52:22.474Z,15.30
2022-12-18T03:53:22.474Z,13.50
2022-12-18T03:54:22.483Z,14.10
2022-12-18T03:55:22.504Z,14.20
2022-12-18T03:56:22.502Z,11.50
2022-12-18T03:57:22.502Z,15.10
2022-12-18T03:58:22.582Z,11.80
2022-12-18T03:59:22.513Z,15.50
2022-12-18T04:00:22.542Z,13.40
2022-12-18T04:01:22.686Z,14.00
2022-12-18T04:02:22.475Z,14.40
2022-12-18T04:03:26.208Z,12.30
2022-12-18T04:04:22.371Z,15.80
2022-12-18T04:05:22.772Z,12.40
2022-12-18T04:06:22.349Z,15.10
2022-12-18T04:07:22.359Z,13.10
2022-12-18T04:08:22.781Z,13.90
2022-12-18T04:09:22.579Z,14.10
2022-12-18T04:10:22.328Z,12.80
2022-12-18T04:11:22.327Z,15.00
2022-12-18T04:12:22.806Z,12.90
2022-12-18T04:13:22.404Z,15.90
2022-12-18T04:14:22.815Z,14.20
2022-12-18T04:15:22.315Z,13.30
2022-12-18T04:16:22.416Z,15.50
2022-12-18T04:17:22.846Z,14.20
2022-12-18T04:18:22.853Z,15.10
2022-12-18T04:19:22.832Z,15.60
2022-12-18T04:20:22.272Z,14.00
2022-12-18T04:21:22.594Z,17.50
2022-12-18T04:22:22.872Z,14.60
2022-12-18T04:23:22.884Z,16.60
2022-12-18T04:24:22.471Z,17.50
2022-12-18T04:25:22.900Z,15.10
2022-12-18T04:26:22.308Z,16.70
2022-12-18T04:27:22.909Z,13.90
2022-12-18T04:28:22.909Z,17.80
2022-12-18T04:29:22.711Z,13.60
2022-12-18T04:30:22.310Z,16.70
2022-12-18T04:31:23.010Z,16.50
2022-12-18T04:32:22.348Z,14.50
2022-12-18T04:33:22.951Z,16.20
2022-12-18T04:34:22.536Z,13.90
2022-12-18T04:35:22.544Z,14.40
2022-12-18T04:36:22.756Z,16.10
2022-12-18T04:37:22.356Z,13.10
2022-12-18T04:38:22.357Z,16.90
2022-12-18T04:39:22.369Z,13.60
2022-12-18T04:40:22.385Z,15.50
2022-12-18T04:41:22.384Z,13.00
2022-12-18T04:42:22.234Z,15.90
2022-12-18T04:43:22.291Z,13.30
2022-12-18T04:44:22.605Z,14.30
2022-12-18T04:45:22.635Z,14.10
2022-12-18T04:46:22.638Z,12.50
2022-12-18T04:47:22.221Z,16.20
2022-12-18T04:48:22.631Z,13.10
2022-12-18T04:49:22.651Z,15.00
2022-12-18T04:50:22.851Z,14.20
2022-12-18T04:51:26.324Z,12.90
2022-12-18T04:52:23.570Z,15.90
2022-12-18T04:53:22.880Z,12.90
2022-12-18T04:54:22.879Z,15.30
2022-12-18T04:55:22.150Z,13.80
2022-12-18T04:56:22.196Z,14.20
2022-12-18T04:57:22.896Z,15.50
2022-12-18T04:58:22.898Z,13.20
2022-12-18T04:59:22.297Z,16.20
2022-12-18T05:00:23.127Z,14.00
2022-12-18T05:01:23.132Z,16.40
2022-12-18T05:02:22.175Z,14.30
2022-12-18T05:03:22.207Z,13.30
2022-12-18T05:04:22.152Z,17.20
2022-12-18T05:05:22.139Z,13.60
2022-12-18T05:06:22.144Z,15.00
2022-12-18T05:07:22.154Z,16.10
2022-12-18T05:08:22.223Z,14.10
2022-12-18T05:09:22.371Z,17.70
2022-12-18T05:10:22.372Z,13.10
2022-12-18T05:11:22.382Z,13.40
2022-12-18T05:12:22.031Z,17.50
2022-12-18T05:13:22.613Z,13.80
2022-12-18T05:14:22.608Z,16.30
2022-12-18T05:15:22.051Z,15.40
2022-12-18T05:16:22.074Z,15.70
2022-12-18T05:17:22.008Z,15.60
2022-12-18T05:18:22.010Z,14.30
2022-12-18T05:19:22.128Z,15.90
2022-12-18T05:20:22.237Z,13.30
2022-12-18T05:21:22.237Z,15.60
2022-12-18T05:22:22.058Z,13.60
2022-12-18T05:23:22.457Z,14.30
2022-12-18T05:24:22.356Z,15.00
2022-12-18T05:25:22.477Z,12.40
2022-12-18T05:26:22.476Z,16.00
2022-12-18T05:27:22.066Z,13.20
2022-12-18T05:28:22.274Z,14.90
2022-12-18T05:29:22.494Z,13.60
2022-12-18T05:30:22.084Z,12.20
2022-12-18T05:31:21.950Z,15.00
2022-12-18T05:32:22.095Z,13.10
2022-12-18T05:33:21.954Z,12.80
2022-12-18T05:34:22.334Z,15.20
2022-12-18T05:35:22.531Z,11.70
2022-12-18T05:36:21.924Z,14.20
2022-12-18T05:37:22.894Z,13.40
2022-12-18T05:38:22.040Z,11.60
2022-12-18T05:39:22.353Z,13.50
2022-12-18T05:40:22.766Z,11.30
2022-12-18T05:41:22.170Z,12.30
2022-12-18T05:42:22.658Z,12.60
2022-12-18T05:43:21.982Z,10.60
2022-12-18T05:44:21.968Z,13.40
2022-12-18T05:45:22.011Z,10.90
2022-12-18T05:46:22.033Z,12.00
2022-12-18T05:47:22.398Z,10.10
2022-12-18T05:48:22.608Z,10.70
2022-12-18T05:49:22.032Z,10.00
2022-12-18T05:50:22.007Z,9.40
2022-12-18T05:51:21.815Z,11.60
2022-12-18T05:52:21.835Z,10.10
2022-12-18T05:53:22.633Z,9.20
2022-12-18T05:54:21.843Z,10.20
2022-12-18T05:55:22.646Z,8.90
2022-12-18T05:56:21.853Z,10.00
2022-12-18T05:57:21.894Z,7.70
2022-12-18T05:58:21.771Z,9.80
2022-12-18T05:59:21.981Z,8.20
2022-12-18T06:00:21.784Z,7.80
2022-12-18T06:01:21.771Z,9.80
2022-12-18T06:02:21.882Z,7.50
2022-12-18T06:03:21.985Z,9.20
2022-12-18T06:04:21.931Z,8.10
2022-12-18T06:05:21.970Z,7.40
2022-12-18T06:06:21.719Z,10.10
2022-12-18T06:07:21.920Z,8.30
2022-12-18T06:08:21.729Z,8.40
2022-12-18T06:09:22.149Z,9.00
2022-12-18T06:10:21.791Z,7.40
2022-12-18T06:11:21.706Z,8.50
2022-12-18T06:12:22.379Z,8.20
2022-12-18T06:13:22.384Z,7.80
2022-12-18T06:14:22.386Z,9.40
2022-12-18T06:15:22.446Z,7.80
2022-12-18T06:16:22.478Z,9.00
2022-12-18T06:17:22.186Z,7.70
2022-12-18T06:18:22.240Z,7.50
2022-12-18T06:19:22.623Z,8.80
2022-12-18T06:20:22.593Z,6.90
2022-12-18T06:21:22.012Z,8.50
2022-12-18T06:22:22.073Z,6.90
2022-12-18T06:23:21.632Z,8.30
2022-12-18T06:24:21.671Z,7.50
2022-12-18T06:25:21.618Z,7.30
2022-12-18T06:26:27.617Z,8.50
2022-12-18T06:27:21.850Z,7.10
2022-12-18T06:28:21.701Z,8.10
2022-12-18T06:29:21.860Z,7.80
2022-12-18T06:30:22.140Z,7.30
2022-12-18T06:31:22.587Z,8.10
2022-12-18T06:32:21.617Z,6.10
2022-12-18T06:33:21.631Z,8.00
2022-12-18T06:34:21.558Z,6.60
2022-12-18T06:35:21.898Z,8.60
2022-12-18T06:36:21.596Z,6.70
2022-12-18T06:37:21.556Z,6.70
2022-12-18T06:38:21.565Z,7.10
2022-12-18T06:39:21.586Z,6.20
2022-12-18T06:40:21.545Z,7.80
2022-12-18T06:41:21.545Z,6.20
2022-12-18T06:42:21.550Z,7.10
2022-12-18T06:43:21.563Z,7.50
2022-12-18T06:44:21.544Z,6.10
2022-12-18T06:45:21.553Z,7.00
2022-12-18T06:46:21.598Z,5.80
2022-12-18T06:47:21.572Z,7.30
2022-12-18T06:48:21.471Z,6.30
2022-12-18T06:49:23.393Z,6.30
2022-12-18T06:50:21.590Z,7.80
2022-12-18T06:51:21.595Z,6.20
2022-12-18T06:52:21.451Z,6.30
2022-12-18T06:53:21.460Z,7.40
2022-12-18T06:54:21.610Z,6.60
2022-12-18T06:55:21.744Z,7.90
2022-12-18T06:56:21.430Z,7.70
2022-12-18T06:57:21.427Z,7.60
2022-12-18T06:58:21.447Z,8.00
2022-12-18T06:59:21.447Z,6.60
2022-12-18T07:00:21.456Z,8.10
2022-12-18T07:01:21.695Z,7.20
2022-12-18T07:02:21.624Z,9.10
2022-12-18T07:03:21.687Z,7.40
2022-12-18T07:04:21.685Z,7.20
2022-12-18T07:05:21.695Z,8.80
2022-12-18T07:06:21.765Z,7.80
2022-12-18T07:07:21.373Z,9.50
2022-12-18T07:08:21.412Z,8.90
2022-12-18T07:09:21.936Z,9.70
2022-12-18T07:10:21.404Z,8.00
2022-12-18T07:11:21.356Z,9.10
2022-12-18T07:12:21.342Z,9.60
2022-12-18T07:13:21.543Z,8.80
2022-12-18T07:14:21.540Z,10.20
2022-12-18T07:15:21.348Z,8.40
2022-12-18T07:16:25.164Z,10.50
2022-12-18T07:17:21.373Z,8.70
2022-12-18T07:18:21.361Z,9.50
2022-12-18T07:19:21.779Z,8.40
2022-12-18T07:20:21.370Z,9.40
2022-12-18T07:21:21.383Z,9.40
2022-12-18T07:22:21.676Z,7.10
2022-12-18T07:23:22.018Z,9.40
2022-12-18T07:24:22.019Z,7.80
2022-12-18T07:25:22.099Z,9.10
2022-12-18T07:26:21.632Z,8.30
2022-12-18T07:27:22.115Z,7.20
2022-12-18T07:28:22.115Z,8.80
2022-12-18T07:29:21.292Z,7.30
2022-12-18T07:30:21.514Z,9.30
2022-12-18T07:31:22.096Z,8.00
2022-12-18T07:32:22.144Z,7.60
2022-12-18T07:33:22.154Z,9.00
2022-12-18T07:34:21.474Z,7.80
2022-12-18T07:35:24.928Z,8.80
2022-12-18T07:36:21.552Z,6.60
2022-12-18T07:37:22.122Z,8.00
2022-12-18T07:38:21.681Z,6.70
2022-12-18T07:39:21.291Z,8.10
2022-12-18T07:40:21.201Z,7.40
2022-12-18T07:41:22.002Z,7.20
2022-12-18T07:42:21.332Z,7.30
2022-12-18T07:43:21.212Z,6.70
2022-12-18T07:44:21.939Z,8.00
2022-12-18T07:45:21.624Z,7.10
2022-12-18T07:46:21.217Z,7.60
2022-12-18T07:47:21.167Z,6.50
2022-12-18T07:48:21.888Z,8.10
2022-12-18T07:49:21.241Z,6.60
2022-12-18T07:50:21.245Z,7.80
2022-12-18T07:51:21.377Z,6.60
2022-12-18T07:52:25.764Z,7.00
2022-12-18T07:53:21.396Z,7.80
2022-12-18T07:54:21.491Z,7.20
2022-12-18T07:55:21.214Z,7.70
2022-12-18T07:56:30.004Z,6.40
2022-12-18T07:57:48.877Z,7.90
2022-12-18T07:58:21.318Z,6.60
2022-12-18T07:59:21.442Z,7.20
2022-12-18T08:00:21.390Z,7.00
2022-12-18T08:01:21.577Z,6.80
2022-12-18T08:02:21.636Z,7.70
2022-12-18T08:03:21.594Z,6.20
2022-12-18T08:04:21.091Z,7.10
2022-12-18T08:05:21.069Z,6.20
2022-12-18T08:06:22.755Z,7.10
2022-12-18T08:07:21.071Z,6.90
2022-12-18T08:08:21.091Z,6.10
2022-12-18T08:09:21.089Z,7.90
2022-12-18T08:10:21.088Z,6.80
2022-12-18T08:11:21.537Z,8.30
2022-12-18T08:12:21.107Z,7.20
2022-12-18T08:13:21.040Z,8.90
2022-12-18T08:14:21.125Z,7.60
2022-12-18T08:15:21.128Z,7.60
2022-12-18T08:16:21.205Z,8.10
2022-12-18T08:17:21.145Z,7.30
2022-12-18T08:18:21.145Z,8.50
2022-12-18T08:19:21.176Z,7.10
2022-12-18T08:20:21.154Z,7.50
2022-12-18T08:21:21.453Z,7.60
2022-12-18T08:22:21.174Z,6.50
2022-12-18T08:23:21.032Z,7.70
2022-12-18T08:24:20.982Z,6.40
2022-12-18T08:25:21.020Z,8.30
2022-12-18T08:26:21.090Z,7.00
2022-12-18T08:27:29.432Z,8.00
2022-12-18T08:28:21.002Z,6.90
2022-12-18T08:29:21.771Z,7.60
2022-12-18T08:30:21.020Z,6.30
2022-12-18T08:31:21.155Z,6.70
2022-12-18T08:32:21.048Z,6.90
2022-12-18T08:33:21.109Z,5.60
2022-12-18T08:34:21.056Z,7.00
2022-12-18T08:35:21.090Z,5.30
2022-12-18T08:36:21.058Z,6.20
2022-12-18T08:37:21.069Z,6.10
2022-12-18T08:38:20.970Z,5.40
2022-12-18T08:39:21.075Z,6.30
2022-12-18T08:40:20.877Z,5.20
2022-12-18T08:41:20.876Z,6.20
2022-12-18T08:42:21.101Z,5.80
2022-12-18T08:43:21.104Z,5.40
2022-12-18T08:44:20.904Z,6.10
2022-12-18T08:45:21.223Z,5.50
2022-12-18T08:46:21.277Z,6.20
2022-12-18T08:47:21.233Z,5.90
2022-12-18T08:48:22.411Z,5.90
2022-12-18T08:49:20.843Z,6.70
2022-12-18T08:50:20.852Z,6.00
2022-12-18T08:51:20.850Z,6.50
2022-12-18T08:52:20.984Z,5.70
2022-12-18T08:53:20.970Z,6.70
2022-12-18T08:54:20.982Z,5.70
2022-12-18T08:55:20.769Z,6.50
2022-12-18T08:56:21.201Z,7.20
2022-12-18T08:57:21.208Z,6.10
2022-12-18T08:58:21.319Z,6.60
2022-12-18T08:59:21.318Z,6.60
2022-12-18T09:00:20.819Z,5.80
2022-12-18T09:01:20.900Z,6.60
2022-12-18T09:02:21.069Z,5.90
2022-12-18T09:03:20.875Z,6.30
2022-12-18T09:04:20.835Z,6.20
2022-12-18T09:05:20.837Z,5.90
2022-12-18T09:06:20.955Z,6.80
2022-12-18T09:07:20.965Z,5.30
2022-12-18T09:08:21.063Z,7.20
2022-12-18T09:09:21.068Z,6.70
2022-12-18T09:10:20.781Z,6.30
2022-12-18T09:11:21.084Z,6.40
2022-12-18T09:12:21.202Z,6.30
2022-12-18T09:13:20.803Z,5.90
2022-12-18T09:14:20.814Z,6.40
2022-12-18T09:15:20.812Z,6.00
2022-12-18T09:16:21.257Z,6.00
2022-12-18T09:17:21.553Z,6.50
2022-12-18T09:18:21.539Z,5.90
2022-12-18T09:19:21.160Z,6.20
2022-12-18T09:20:21.049Z,6.70
2022-12-18T09:21:21.350Z,6.50
2022-12-18T09:22:20.749Z,6.80
2022-12-18T09:23:21.693Z,6.70
2022-12-18T09:24:20.965Z,6.10
2022-12-18T09:25:21.287Z,6.70
2022-12-18T09:26:21.667Z,7.00
2022-12-18T09:27:21.546Z,6.60
2022-12-18T09:28:20.903Z,7.00
2022-12-18T09:29:20.865Z,6.80
2022-12-18T09:30:20.794Z,7.90
2022-12-18T09:31:21.494Z,8.60
2022-12-18T09:32:22.489Z,7.80
2022-12-18T09:33:21.135Z,7.60
2022-12-18T09:34:20.824Z,7.60
2022-12-18T09:35:20.946Z,7.30
2022-12-18T09:36:21.162Z,8.10
2022-12-18T09:37:20.563Z,8.60
2022-12-18T09:38:20.582Z,8.10
2022-12-18T09:39:23.611Z,7.30
2022-12-18T09:40:20.581Z,8.70
2022-12-18T09:41:20.601Z,8.90
2022-12-18T09:42:20.670Z,8.90
2022-12-18T09:43:20.598Z,9.00
2022-12-18T09:44:20.722Z,8.80
2022-12-18T09:45:20.609Z,9.30
2022-12-18T09:46:20.827Z,9.40
2022-12-18T09:47:20.630Z,9.10
2022-12-18T09:48:20.522Z,8.70
2022-12-18T09:49:20.509Z,8.90
2022-12-18T09:50:20.740Z,9.40
2022-12-18T09:51:20.864Z,9.00
2022-12-18T09:52:20.487Z,8.40
2022-12-18T09:53:20.878Z,8.40
2022-12-18T09:54:20.466Z,8.30
2022-12-18T09:55:20.882Z,8.80
2022-12-18T09:56:20.487Z,9.30
2022-12-18T09:57:20.910Z,10.50
2022-12-18T09:58:21.124Z,9.90
2022-12-18T09:59:21.125Z,9.70
2022-12-18T10:00:20.736Z,9.60
2022-12-18T10:01:20.931Z,10.00
2022-12-18T10:02:21.195Z,9.20
2022-12-18T10:03:21.371Z,9.60
2022-12-18T10:04:21.400Z,10.90
2022-12-18T10:05:20.742Z,8.80
2022-12-18T10:06:21.164Z,9.40
2022-12-18T10:07:21.291Z,8.80
2022-12-18T10:08:21.192Z,9.00
2022-12-18T10:09:20.980Z,9.40
2022-12-18T10:10:21.267Z,9.70
2022-12-18T10:11:20.368Z,9.40
2022-12-18T10:12:20.349Z,10.50
2022-12-18T10:13:21.478Z,9.90
2022-12-18T10:14:21.087Z,10.80
2022-12-18T10:15:20.407Z,10.30
2022-12-18T10:16:20.466Z,9.90
2022-12-18T10:17:20.496Z,9.80
2022-12-18T10:18:22.201Z,9.90
2022-12-18T10:19:20.442Z,9.70
2022-12-18T10:20:20.590Z,10.30
2022-12-18T10:21:20.514Z,9.50
2022-12-18T10:22:20.654Z,9.40
2022-12-18T10:23:20.663Z,9.20
2022-12-18T10:24:20.265Z,10.00
2022-12-18T10:25:20.683Z,10.70
2022-12-18T10:26:20.763Z,10.20
2022-12-18T10:27:20.551Z,11.00
2022-12-18T10:28:20.446Z,10.90
2022-12-18T10:29:20.701Z,11.20
2022-12-18T10:30:20.921Z,10.50
2022-12-18T10:31:21.063Z,11.40
2022-12-18T10:32:21.142Z,10.70
2022-12-18T10:33:20.589Z,11.30
2022-12-18T10:34:20.257Z,11.00
2022-12-18T10:35:21.028Z,11.30
2022-12-18T10:36:21.067Z,11.60
2022-12-18T10:37:20.351Z,13.00
2022-12-18T10:38:20.827Z,13.40
2022-12-18T10:39:20.205Z,12.30
2022-12-18T10:40:22.591Z,11.50
2022-12-18T10:41:21.786Z,12.60
2022-12-18T10:42:20.257Z,12.20
2022-12-18T10:43:20.395Z,12.80
2022-12-18T10:44:20.256Z,11.40
2022-12-18T10:45:20.256Z,11.60
2022-12-18T10:46:20.488Z,11.60
2022-12-18T10:47:20.417Z,11.80
2022-12-18T10:48:20.634Z,12.10
2022-12-18T10:49:20.649Z,12.60
2022-12-18T10:50:20.103Z,11.40
2022-12-18T10:51:20.134Z,11.20
2022-12-18T10:52:20.145Z,10.30
2022-12-18T10:53:20.146Z,10.30
2022-12-18T10:54:20.125Z,10.10
2022-12-18T10:55:20.271Z,10.00
2022-12-18T10:56:20.110Z,10.50
2022-12-18T10:57:20.296Z,9.60
2022-12-18T10:58:26.361Z,9.20
2022-12-18T10:59:20.351Z,9.80
2022-12-18T11:00:20.101Z,9.50
2022-12-18T11:01:20.657Z,10.40
2022-12-18T11:02:20.863Z,10.60
2022-12-18T11:03:20.577Z,10.50
2022-12-18T11:04:20.060Z,9.60
2022-12-18T11:05:20.018Z,11.90
2022-12-18T11:06:20.027Z,9.90
2022-12-18T11:07:20.016Z,10.20
2022-12-18T11:08:20.026Z,11.60
2022-12-18T11:09:20.017Z,10.50
2022-12-18T11:10:20.039Z,10.30
2022-12-18T11:11:19.976Z,9.40
2022-12-18T11:12:19.987Z,10.10
2022-12-18T11:13:19.998Z,10.20
2022-12-18T11:14:19.995Z,10.40
2022-12-18T11:15:20.004Z,10.40
2022-12-18T11:16:20.155Z,10.10
2022-12-18T11:17:27.318Z,9.60
2022-12-18T11:18:20.070Z,9.90
2022-12-18T11:19:20.074Z,10.00
2022-12-18T11:20:20.084Z,9.70
2022-12-18T11:21:20.094Z,10.10
2022-12-18T11:22:20.110Z,10.50
2022-12-18T11:23:19.912Z,10.20
2022-12-18T11:24:20.270Z,9.70
2022-12-18T11:25:32.951Z,10.20
2022-12-18T11:26:20.283Z,9.80
2022-12-18T11:27:20.289Z,9.60
2022-12-18T11:28:19.888Z,11.10
2022-12-18T11:29:19.925Z,10.60
2022-12-18T11:30:19.901Z,14.70
2022-12-18T11:31:19.943Z,11.40
2022-12-18T11:32:19.970Z,11.30
2022-12-18T11:33:20.137Z,10.50
2022-12-18T11:34:29.018Z,10.00
2022-12-18T11:35:19.987Z,10.60
2022-12-18T11:36:19.948Z,11.10
2022-12-18T11:37:19.947Z,10.50
2022-12-18T11:38:20.025Z,11.00
2022-12-18T11:39:20.175Z,10.90
2022-12-18T11:40:20.177Z,10.80
2022-12-18T11:41:19.792Z,10.30
2022-12-18T11:42:20.196Z,10.20
2022-12-18T11:43:20.245Z,11.30
2022-12-18T11:44:20.824Z,11.20
2022-12-18T11:45:20.424Z,11.90
2022-12-18T11:46:20.368Z,11.30
2022-12-18T11:47:20.014Z,11.70
2022-12-18T11:48:20.293Z,11.60
2022-12-18T11:49:19.842Z,10.70
2022-12-18T11:50:19.873Z,10.60
2022-12-18T11:51:19.741Z,11.10
2022-12-18T11:52:19.853Z,11.10
2022-12-18T11:53:20.060Z,11.20
2022-12-18T11:54:19.867Z,11.50
2022-12-18T11:55:19.712Z,11.70
2022-12-18T11:56:20.053Z,11.10
2022-12-18T11:57:20.082Z,11.50
2022-12-18T11:58:20.310Z,11.70
2022-12-18T11:59:19.771Z,11.30
2022-12-18T12:00:20.109Z,11.00
2022-12-18T12:01:20.590Z,11.70
2022-12-18T12:02:20.552Z,10.80
2022-12-18T12:03:20.566Z,11.10
2022-12-18T12:04:20.186Z,10.80
2022-12-18T12:05:20.548Z,11.10
2022-12-18T12:06:19.779Z,11.00
2022-12-18T12:07:19.778Z,10.60
2022-12-18T12:08:19.757Z,11.50
2022-12-18T12:09:19.597Z,11.20
2022-12-18T12:10:19.775Z,11.20
2022-12-18T12:11:19.769Z,10.90
2022-12-18T12:12:19.995Z,11.50
2022-12-18T12:13:19.997Z,10.80
2022-12-18T12:14:19.625Z,10.60
2022-12-18T12:15:19.825Z,11.20
2022-12-18T12:16:20.099Z,10.80
2022-12-18T12:17:20.271Z,11.40
2022-12-18T12:18:19.824Z,10.90
2022-12-18T12:19:20.033Z,11.30
2022-12-18T12:20:20.253Z,11.50
2022-12-18T12:21:20.462Z,12.20
2022-12-18T12:22:20.362Z,12.20
2022-12-18T12:23:22.468Z,12.60
2022-12-18T12:24:20.062Z,11.90
2022-12-18T12:25:20.321Z,12.10
2022-12-18T12:26:20.231Z,12.60
2022-12-18T12:27:19.562Z,12.60
2022-12-18T12:28:19.493Z,12.60
2022-12-18T12:29:21.268Z,11.10
2022-12-18T12:30:19.514Z,11.30
2022-12-18T12:31:19.512Z,11.20
2022-12-18T12:32:19.508Z,10.90
2022-12-18T12:33:19.521Z,12.20
2022-12-18T12:34:19.942Z,12.10
2022-12-18T12:35:19.529Z,10.70
2022-12-18T12:36:19.537Z,11.80
2022-12-18T12:37:19.617Z,10.80
2022-12-18T12:38:19.547Z,11.60
2022-12-18T12:39:19.437Z,10.80
2022-12-18T12:40:49.093Z,11.20
2022-12-18T12:41:19.446Z,11.20
2022-12-18T12:42:19.426Z,10.90
2022-12-18T12:43:19.425Z,10.20
2022-12-18T12:44:19.385Z,11.30
2022-12-18T12:45:19.495Z,10.70
2022-12-18T12:46:19.460Z,11.60
2022-12-18T12:47:19.403Z,11.70
2022-12-18T12:48:19.414Z,11.70
2022-12-18T12:49:19.354Z,11.60
2022-12-18T12:50:19.335Z,11.30
2022-12-18T12:51:19.355Z,11.40
2022-12-18T12:52:19.447Z,11.10
2022-12-18T12:53:19.363Z,11.40
2022-12-18T12:54:19.302Z,10.80
2022-12-18T12:55:19.312Z,9.70
2022-12-18T12:56:19.361Z,10.60
2022-12-18T12:57:19.440Z,10.60
2022-12-18T12:58:19.303Z,10.10
2022-12-18T12:59:19.404Z,9.60
2022-12-18T13:00:19.297Z,10.20
2022-12-18T13:01:23.385Z,10.20